Time;durP1;ratioP1;P1;durP2;ratioP2;P2;SDS_P1;SDS_P2;PMS_P1;PMS_P2;Temp;Humidity;BMP_temperature;BMP_pressure;BME280_temperature;BME280_humidity;BME280_pressure;Samples;Min_cycle;Max_cycle;Signal;HPM_P1;HPM_P2
2022/03/11 00:01:16;;;;;;;8.07;7.28;;;8.80;26.00;;;;;;20381;6880;339418;-89
2022/03/11 00:03:41;;;;;;;8.00;7.40;;;8.80;26.60;;;;;;20396;6880;309808;-89
2022/03/11 00:06:07;;;;;;;7.60;6.93;;;8.90;26.40;;;;;;20619;6880;117845;-89
2022/03/11 00:08:33;;;;;;;7.63;7.03;;;8.90;26.40;;;;;;20405;6880;281392;-89
2022/03/11 00:10:59;;;;;;;7.97;7.37;;;8.80;26.80;;;;;;20384;6880;310650;-90
2022/03/11 00:13:24;;;;;;;8.10;7.40;;;9.00;26.90;;;;;;20621;6880;117958;-90
2022/03/11 00:15:50;;;;;;;10.47;6.90;;;8.50;26.70;;;;;;20614;6880;117315;-89
2022/03/11 00:18:17;;;;;;;8.53;7.73;;;8.50;26.70;;;;;;20397;6880;280130;-89
2022/03/11 00:20:43;;;;;;;8.27;7.57;;;8.80;27.50;;;;;;20409;6879;310240;-89
2022/03/11 00:23:09;;;;;;;8.53;7.83;;;8.70;27.40;;;;;;20606;6880;118920;-89
2022/03/11 00:25:35;;;;;;;9.13;8.23;;;8.60;27.00;;;;;;20405;6880;280990;-90
2022/03/11 00:28:00;;;;;;;8.87;8.10;;;8.70;27.60;;;;;;20624;6880;117279;-89
2022/03/11 00:30:26;;;;;;;8.40;7.80;;;8.50;27.20;;;;;;20584;6880;118344;-90
2022/03/11 00:32:52;;;;;;;9.30;8.50;;;8.30;28.00;;;;;;20382;6880;283258;-89
2022/03/11 00:35:18;;;;;;;9.80;9.00;;;8.30;28.00;;;;;;20394;6880;341553;-89
2022/03/11 00:37:44;;;;;;;9.05;8.25;;;8.40;27.60;;;;;;20592;6880;117759;-89
2022/03/11 00:40:12;;;;;;;8.53;7.70;;;8.40;27.60;;;;;;20614;6880;117730;-89
2022/03/11 00:42:36;;;;;;;9.33;8.40;;;8.20;28.30;;;;;;20391;6880;314498;-89
2022/03/11 00:45:01;;;;;;;8.67;7.87;;;8.20;28.30;;;;;;20595;6880;127408;-89
2022/03/11 00:47:27;;;;;;;8.60;7.80;;;8.10;28.00;;;;;;20612;6880;119014;-89
2022/03/11 00:49:53;;;;;;;8.10;7.40;;;7.60;28.40;;;;;;20615;6880;117235;-89
2022/03/11 00:52:19;;;;;;;10.10;9.13;;;7.60;28.10;;;;;;20408;6880;310175;-89
2022/03/11 00:54:47;;;;;;;8.83;8.03;;;7.70;28.70;;;;;;20615;6880;117546;-90
2022/03/11 00:57:16;;;;;;;9.20;8.30;;;7.50;28.60;;;;;;20600;6880;121753;-90
2022/03/11 00:59:40;;;;;;;8.27;7.57;;;7.50;28.60;;;;;;20612;6880;118467;-89
2022/03/11 01:02:07;;;;;;;10.02;9.13;;;7.30;28.60;;;;;;20414;6880;280551;-90
2022/03/11 01:04:32;;;;;;;9.87;9.10;;;7.40;29.60;;;;;;20411;6880;343109;-90
2022/03/11 01:06:58;;;;;;;10.13;9.32;;;7.80;29.70;;;;;;20405;6880;309122;-90
2022/03/11 01:09:24;;;;;;;9.07;8.38;;;7.90;29.00;;;;;;20703;6880;69637;-89
2022/03/11 01:11:51;;;;;;;10.70;9.90;;;7.90;29.00;;;;;;20427;6880;309852;-89
2022/03/11 01:14:16;;;;;;;9.80;8.90;;;7.90;29.50;;;;;;20615;6880;117422;-89
2022/03/11 01:16:42;;;;;;;10.77;9.80;;;7.80;29.20;;;;;;20376;6880;311109;-90
2022/03/11 01:19:08;;;;;;;10.73;9.77;;;7.80;29.70;;;;;;20353;6880;309949;-90
2022/03/11 01:21:33;;;;;;;10.98;10.10;;;8.00;29.60;;;;;;20394;6880;314776;-90
2022/03/11 01:23:59;;;;;;;11.27;10.27;;;8.20;29.50;;;;;;20382;6880;309979;-90
2022/03/11 01:26:24;;;;;;;10.63;9.80;;;8.30;29.30;;;;;;20401;6880;309908;-90
2022/03/11 01:28:50;;;;;;;10.93;10.03;;;8.40;29.20;;;;;;20405;6880;315332;-90
2022/03/11 01:31:16;;;;;;;11.27;10.27;;;8.50;29.20;;;;;;20232;6879;281457;-90
2022/03/11 01:33:41;;;;;;;10.17;9.17;;;8.50;29.20;;;;;;20618;6879;118810;-90
2022/03/11 01:36:07;;;;;;;10.87;9.80;;;8.20;29.10;;;;;;20617;6880;117437;-90
2022/03/11 01:38:32;;;;;;;11.50;10.40;;;7.70;29.20;;;;;;20410;6880;292287;-90
2022/03/11 01:40:58;;;;;;;11.50;10.60;;;7.70;30.00;;;;;;20386;6880;314415;-92
2022/03/11 01:43:24;;;;;;;9.53;8.83;;;7.70;29.60;;;;;;20624;6880;124447;-91
2022/03/11 01:45:50;;;;;;;9.83;9.13;;;7.70;29.60;;;;;;20618;6880;118964;-90
2022/03/11 01:48:15;;;;;;;10.85;9.70;;;7.30;29.60;;;;;;20617;6880;116803;-89
2022/03/11 01:50:42;;;;;;;10.27;9.30;;;7.00;29.80;;;;;;20625;6880;117351;-90
2022/03/11 01:53:08;;;;;;;11.30;10.20;;;6.70;30.00;;;;;;20601;6880;118254;-89
2022/03/11 01:55:33;;;;;;;9.77;8.87;;;6.50;30.00;;;;;;20620;6880;117746;-89
2022/03/11 01:58:00;;;;;;;11.35;10.35;;;6.40;30.30;;;;;;20408;6880;280566;-89
2022/03/11 02:00:27;;;;;;;10.13;9.23;;;6.60;31.10;;;;;;20622;6880;117628;-89
2022/03/11 02:02:55;;;;;;;9.80;8.90;;;6.60;31.10;;;;;;20599;6880;119104;-89
2022/03/11 02:05:21;;;;;;;10.73;9.80;;;6.40;30.90;;;;;;20410;6880;310238;-89
2022/03/11 02:07:49;;;;;;;11.13;10.37;;;6.50;31.70;;;;;;20387;6880;310257;-89
2022/03/11 02:10:15;;;;;;;13.03;9.60;;;6.90;31.60;;;;;;20616;6880;117706;-90
2022/03/11 02:12:41;;;;;;;11.70;10.77;;;6.80;31.00;;;;;;20402;6880;310967;-89
2022/03/11 02:15:06;;;;;;;11.27;10.17;;;6.80;31.50;;;;;;20593;6880;118240;-89
2022/03/11 02:17:33;;;;;;;10.93;9.40;;;6.70;31.10;;;;;;20612;6880;121701;-89
2022/03/11 02:19:59;;;;;;;11.52;10.23;;;6.40;31.10;;;;;;20397;6880;289891;-89
2022/03/11 02:22:24;;;;;;;11.30;10.30;;;6.40;31.90;;;;;;20409;6880;308260;-89
2022/03/11 02:24:50;;;;;;;10.70;9.70;;;6.70;31.90;;;;;;20621;6880;117952;-89
2022/03/11 02:27:19;;;;;;;12.27;11.20;;;6.60;31.40;;;;;;20216;6880;343251;-89
2022/03/11 02:29:44;;;;;;;11.50;10.00;;;6.70;31.90;;;;;;20617;6880;117724;-90
2022/03/11 02:32:10;;;;;;;12.50;10.35;;;6.50;31.50;;;;;;20619;6880;118863;-89
2022/03/11 02:34:40;;;;;;;11.03;10.00;;;6.20;31.50;;;;;;20623;6880;125422;-92
2022/03/11 02:37:01;;;;;;;12.57;11.27;;;5.90;31.60;;;;;;20357;6880;314552;-90
2022/03/11 02:39:27;;;;;;;10.87;9.97;;;6.00;32.80;;;;;;20624;6880;118540;-89
2022/03/11 02:41:52;;;;;;;12.47;10.90;;;6.00;32.40;;;;;;20628;6880;117009;-90
2022/03/11 02:44:18;;;;;;;11.40;10.30;;;5.80;32.40;;;;;;20631;6879;120040;-89
2022/03/11 02:46:43;;;;;;;11.63;10.53;;;5.60;32.40;;;;;;20625;6880;118759;-90
2022/03/11 02:49:09;;;;;;;11.07;10.07;;;5.50;32.50;;;;;;20605;6880;117724;-90
2022/03/11 02:51:35;;;;;;;13.40;12.20;;;5.30;32.50;;;;;;20409;6880;290152;-90
2022/03/11 02:54:03;;;;;;;14.52;13.13;;;5.60;33.90;;;;;;20402;6880;334745;-90
2022/03/11 02:56:30;;;;;;;12.90;11.67;;;6.00;33.90;;;;;;20592;6880;118058;-89
2022/03/11 02:58:55;;;;;;;12.53;11.30;;;5.90;33.10;;;;;;20589;6880;118635;-90
2022/03/11 03:01:21;;;;;;;12.80;11.50;;;5.70;33.00;;;;;;20609;6880;117911;-89
2022/03/11 03:03:46;;;;;;;12.27;11.17;;;5.50;33.10;;;;;;20609;6880;119099;-89
2022/03/11 03:06:12;;;;;;;15.40;13.80;;;5.30;33.20;;;;;;20398;6880;339559;-90
2022/03/11 03:08:38;;;;;;;13.80;12.40;;;5.50;34.30;;;;;;20607;6880;117739;-89
2022/03/11 03:11:04;;;;;;;14.90;13.60;;;5.70;34.40;;;;;;20373;6880;340048;-90
2022/03/11 03:13:29;;;;;;;14.32;13.02;;;5.70;34.30;;;;;;20391;6880;339451;-89
2022/03/11 03:15:56;;;;;;;13.90;12.50;;;6.10;34.30;;;;;;20606;6880;121568;-90
2022/03/11 03:18:22;;;;;;;16.00;14.50;;;6.00;33.60;;;;;;20399;6880;344274;-89
2022/03/11 03:20:49;;;;;;;13.60;12.23;;;6.00;33.90;;;;;;20622;6880;117715;-89
2022/03/11 03:23:14;;;;;;;14.17;12.73;;;5.90;33.50;;;;;;20599;6880;118826;-89
2022/03/11 03:25:41;;;;;;;13.00;11.67;;;5.60;33.50;;;;;;20624;6880;117716;-89
2022/03/11 03:28:05;;;;;;;15.02;13.73;;;5.30;33.50;;;;;;20397;6880;314612;-90
2022/03/11 03:30:31;;;;;;;14.32;12.95;;;5.40;34.50;;;;;;20626;6880;117658;-89
2022/03/11 03:32:57;;;;;;;15.75;14.35;;;5.40;34.00;;;;;;20374;6880;281091;-89
2022/03/11 03:35:22;;;;;;;16.12;14.63;;;5.50;34.50;;;;;;20405;6880;323536;-89
2022/03/11 03:37:48;;;;;;;16.73;15.23;;;5.80;34.30;;;;;;20400;6880;343988;-89
2022/03/11 03:40:13;;;;;;;14.23;12.93;;;6.00;34.10;;;;;;20613;6880;117805;-90
2022/03/11 03:42:39;;;;;;;15.02;12.85;;;5.80;33.70;;;;;;20612;6880;119967;-89
2022/03/11 03:45:06;;;;;;;17.25;15.52;;;5.50;33.80;;;;;;20361;6880;337582;-89
2022/03/11 03:47:31;;;;;;;14.43;13.13;;;5.40;34.20;;;;;;20612;6880;117384;-89
2022/03/11 03:49:58;;;;;;;16.63;15.13;;;5.40;34.10;;;;;;20401;6880;310821;-89
2022/03/11 03:52:24;;;;;;;15.70;14.10;;;5.40;34.90;;;;;;20613;6880;121528;-89
2022/03/11 03:54:49;;;;;;;14.50;13.10;;;5.30;34.40;;;;;;20620;6878;117727;-89
2022/03/11 03:57:15;;;;;;;17.30;15.70;;;5.20;35.30;;;;;;20371;6880;337526;-89
2022/03/11 03:59:41;;;;;;;16.63;14.90;;;5.20;35.30;;;;;;20620;6880;117062;-89
2022/03/11 04:02:07;;;;;;;18.95;17.15;;;5.20;34.90;;;;;;20404;6880;309225;-89
2022/03/11 04:04:32;;;;;;;16.00;14.45;;;5.30;35.30;;;;;;20616;6880;121513;-90
2022/03/11 04:06:58;;;;;;;18.67;16.80;;;5.20;34.80;;;;;;20391;6880;281615;-89
2022/03/11 04:09:23;;;;;;;18.37;16.57;;;5.30;35.20;;;;;;20408;6880;339489;-90
2022/03/11 04:11:51;;;;;;;18.93;17.13;;;5.80;34.60;;;;;;20410;6880;344157;-89
2022/03/11 04:14:16;;;;;;;18.17;15.03;;;5.80;34.60;;;;;;20624;6880;118144;-90
2022/03/11 04:16:42;;;;;;;18.43;15.57;;;5.60;34.20;;;;;;20624;6880;117722;-89
2022/03/11 04:19:09;;;;;;;19.23;17.33;;;5.20;34.30;;;;;;20389;6880;289948;-90
2022/03/11 04:21:34;;;;;;;18.92;17.23;;;5.30;35.00;;;;;;20364;6880;340328;-90
2022/03/11 04:24:00;;;;;;;16.87;15.23;;;5.50;34.90;;;;;;20620;6880;117890;-90
2022/03/11 04:26:25;;;;;;;19.20;17.27;;;5.40;34.60;;;;;;20408;6880;309921;-89
2022/03/11 04:28:51;;;;;;;18.77;17.05;;;5.40;35.00;;;;;;20385;6880;309915;-90
2022/03/11 04:31:19;;;;;;;18.30;15.55;;;5.60;34.70;;;;;;20621;6880;117923;-89
2022/03/11 04:33:45;;;;;;;16.73;15.03;;;5.40;34.30;;;;;;20617;6880;117799;-90
2022/03/11 04:36:10;;;;;;;16.77;14.97;;;5.10;34.50;;;;;;20615;6880;118138;-92
2022/03/11 04:38:36;;;;;;;20.10;18.00;;;4.80;34.70;;;;;;20403;6880;314244;-91
2022/03/11 04:41:01;;;;;;;17.57;15.77;;;4.90;35.50;;;;;;20606;6880;144244;-90
2022/03/11 04:43:27;;;;;;;19.90;17.83;;;4.80;35.00;;;;;;20415;6880;314145;-91
2022/03/11 04:45:53;;;;;;;17.75;15.98;;;4.90;35.50;;;;;;20648;6880;119523;-92
2022/03/11 04:48:18;;;;;;;17.00;15.20;;;4.80;35.00;;;;;;20685;6880;116764;-92
2022/03/11 04:50:43;;;;;;;18.30;16.67;;;4.60;35.10;;;;;;20472;6880;341117;-90
2022/03/11 04:53:09;;;;;;;18.52;16.62;;;4.80;36.00;;;;;;20656;6880;117871;-91
2022/03/11 04:55:35;;;;;;;16.25;14.50;;;4.80;36.00;;;;;;20710;6880;68069;-92
2022/03/11 04:58:03;;;;;;;18.33;15.02;;;4.60;35.40;;;;;;20841;6635;67181;-90
2022/03/11 05:00:40;;;;;;;16.97;15.23;;;4.20;35.30;;;;;;20812;6768;117151;-87
2022/03/11 05:03:15;;;;;;;19.67;17.75;;;4.20;35.30;;;;;;20542;6784;310789;-87
2022/03/11 05:05:51;;;;;;;20.52;18.45;;;4.40;36.00;;;;;;20591;6763;306842;-88
2022/03/11 05:08:27;;;;;;;19.17;16.63;;;4.70;35.10;;;;;;20666;6767;117201;-93
2022/03/11 05:11:06;;;;;;;17.47;15.67;;;4.70;35.10;;;;;;20855;6768;120160;-89
2022/03/11 05:13:41;;;;;;;18.00;14.97;;;4.40;35.20;;;;;;20822;6753;117868;-90
2022/03/11 05:16:27;;;;;;;;;;;;;;;;;;;;;
2022/03/11 05:18:53;;;;;;;21.03;15.67;;;3.90;35.50;;;;;;20891;6768;117372;-92
2022/03/11 05:21:28;;;;;;;20.73;18.70;;;3.80;35.60;;;;;;20625;6793;277220;-90
2022/03/11 05:24:04;;;;;;;21.03;19.03;;;4.00;36.60;;;;;;20167;6804;278012;-90
2022/03/11 05:26:39;;;;;;;20.87;18.87;;;4.40;36.40;;;;;;19737;6830;296485;-92
2022/03/11 05:29:16;;;;;;;18.43;16.37;;;4.70;35.80;;;;;;20058;6828;116529;-93
2022/03/11 05:31:51;;;;;;;17.17;15.37;;;4.50;35.30;;;;;;20769;6759;67926;-90
2022/03/11 05:34:29;;;;;;;17.07;15.17;;;4.20;35.40;;;;;;20663;6771;116420;-91
2022/03/11 05:37:05;;;;;;;17.63;15.30;;;3.90;35.70;;;;;;20635;6786;119113;-89
2022/03/11 05:39:40;;;;;;;17.50;15.27;;;3.70;35.80;;;;;;20617;6776;116454;-85
2022/03/11 05:42:15;;;;;;;16.73;14.87;;;3.50;35.90;;;;;;20799;6771;117312;-88
2022/03/11 05:44:51;;;;;;;19.87;17.87;;;3.30;36.00;;;;;;20537;6771;312246;-85
2022/03/11 05:47:28;;;;;;;19.43;17.23;;;3.60;36.60;;;;;;20719;6791;117930;-87
2022/03/11 05:50:04;;;;;;;18.93;16.00;;;3.60;36.50;;;;;;20844;6776;118332;-87
2022/03/11 05:52:40;;;;;;;21.57;19.47;;;3.50;36.60;;;;;;20519;6837;309118;-87
2022/03/11 05:55:17;;;;;;;22.17;19.90;;;4.10;36.80;;;;;;20527;6780;309387;-89
2022/03/11 05:58:03;;;;;;;;;;;;;;;;;;;;;
2022/03/11 06:00:29;;;;;;;18.30;16.17;;;4.10;36.30;;;;;;20814;6766;117875;-89
2022/03/11 06:03:06;;;;;;;22.60;20.40;;;4.00;36.90;;;;;;20533;6783;338278;-87
2022/03/11 06:05:43;;;;;;;22.25;20.15;;;4.00;36.90;;;;;;20591;6753;336784;-88
2022/03/11 06:08:16;;;;;;;22.60;20.23;;;4.40;36.60;;;;;;20505;6753;336016;-87
2022/03/11 06:10:54;;;;;;;22.15;19.95;;;4.70;36.00;;;;;;20588;6766;336414;-84
2022/03/11 06:13:30;;;;;;;20.43;17.37;;;4.90;35.70;;;;;;20752;6766;118044;-86
2022/03/11 06:16:06;;;;;;;22.42;20.30;;;4.80;35.60;;;;;;20582;6768;335487;-88
2022/03/11 06:18:42;;;;;;;17.77;16.10;;;4.80;35.70;;;;;;20546;6839;118243;-90
2022/03/11 06:21:20;;;;;;;20.60;18.50;;;4.80;35.60;;;;;;20509;6770;336458;-88
2022/03/11 06:37:23;;;;;;;18.40;16.57;;;6.70;33.10;;;;;;21495;6529;66956;-87
2022/03/11 06:39:49;;;;;;;16.90;15.10;;;6.60;33.30;;;;;;20983;6687;117187;-87
2022/03/11 06:42:14;;;;;;;19.75;17.95;;;6.30;33.60;;;;;;20402;6888;308611;-90
2022/03/11 06:44:42;;;;;;;18.02;16.23;;;6.50;33.70;;;;;;20643;6866;121278;-89
2022/03/11 06:47:10;;;;;;;22.23;17.85;;;6.50;33.50;;;;;;20426;6866;308901;-86
2022/03/11 06:49:37;;;;;;;17.90;16.10;;;6.80;33.20;;;;;;20674;6866;118216;-87
2022/03/11 06:52:03;;;;;;;16.60;14.87;;;6.80;33.00;;;;;;20653;6866;117572;-90
2022/03/11 06:54:28;;;;;;;18.13;16.43;;;6.80;33.30;;;;;;20448;6866;308183;-89
2022/03/11 06:56:55;;;;;;;17.30;15.60;;;7.00;33.20;;;;;;20637;6866;121589;-91
2022/03/11 06:59:19;;;;;;;20.08;18.08;;;7.20;33.00;;;;;;20440;6866;325753;-88
2022/03/11 07:01:45;;;;;;;16.15;14.55;;;7.40;31.80;;;;;;20669;6866;122664;-92
2022/03/11 07:04:12;;;;;;;15.17;13.77;;;7.60;31.70;;;;;;20665;6866;117541;-90
2022/03/11 07:06:37;;;;;;;14.97;13.47;;;7.50;31.70;;;;;;20646;6866;117509;-89
2022/03/11 07:09:03;;;;;;;16.92;15.15;;;7.40;31.70;;;;;;20423;6876;310174;-90
2022/03/11 07:11:31;;;;;;;16.35;14.63;;;7.70;30.50;;;;;;20636;6876;118574;-88
2022/03/11 07:13:56;;;;;;;17.80;15.90;;;7.90;30.30;;;;;;20422;6876;338829;-89
2022/03/11 07:16:23;;;;;;;17.00;15.50;;;8.20;30.00;;;;;;20447;6876;309893;-89
2022/03/11 07:18:52;;;;;;;16.97;15.47;;;8.60;29.10;;;;;;20450;6876;309442;-89
2022/03/11 07:21:18;;;;;;;16.73;15.23;;;9.00;29.10;;;;;;20437;6876;308788;-91
2022/03/11 07:23:43;;;;;;;16.30;14.70;;;9.30;28.80;;;;;;20433;6876;308973;-87
2022/03/11 07:29:35;;;;;;;16.17;14.57;;;9.80;28.00;;;;;;20476;6876;309655;-90
2022/03/11 07:32:01;;;;;;;15.00;13.50;;;10.00;26.80;;;;;;20716;6876;116694;-93
2022/03/11 07:34:27;;;;;;;13.87;12.73;;;9.90;28.00;;;;;;20710;6876;121178;-95
2022/03/11 07:36:54;;;;;;;14.20;12.47;;;9.70;28.40;;;;;;20675;6876;119812;-89
2022/03/11 07:39:21;;;;;;;14.97;13.57;;;9.70;27.80;;;;;;20425;6876;309856;-88
2022/03/11 07:41:49;;;;;;;14.53;13.13;;;9.70;27.80;;;;;;20613;6876;118627;-90
2022/03/11 07:44:13;;;;;;;14.85;13.45;;;9.80;28.00;;;;;;20359;6889;279990;-89
2022/03/11 07:46:38;;;;;;;15.35;13.95;;;9.90;27.60;;;;;;20334;6902;310752;-90
2022/03/11 07:49:04;;;;;;;15.43;14.07;;;10.60;27.00;;;;;;20359;6871;310165;-88
2022/03/11 07:51:30;;;;;;;15.75;14.40;;;10.60;27.00;;;;;;20443;6871;282330;-89
2022/03/11 07:53:56;;;;;;;16.00;14.55;;;10.80;26.20;;;;;;20434;6871;338486;-89
2022/03/11 07:56:21;;;;;;;15.37;13.90;;;11.10;26.10;;;;;;20649;6871;117791;-93
2022/03/11 07:58:47;;;;;;;16.60;15.20;;;11.00;26.20;;;;;;20433;6872;313958;-90
2022/03/11 08:01:12;;;;;;;15.63;13.97;;;11.10;25.70;;;;;;20637;6872;121334;-89
2022/03/11 08:03:38;;;;;;;16.50;14.67;;;11.00;25.90;;;;;;20650;6872;122950;-90
2022/03/11 08:06:04;;;;;;;16.42;14.90;;;10.80;26.40;;;;;;20435;6872;338304;-87
2022/03/11 08:08:30;;;;;;;15.57;14.07;;;10.90;26.20;;;;;;20647;6872;117200;-87
2022/03/11 08:10:56;;;;;;;15.23;13.77;;;10.90;26.10;;;;;;20621;6872;117796;-87
2022/03/11 08:13:21;;;;;;;15.67;14.17;;;10.70;26.20;;;;;;20465;6872;313068;-87
2022/03/11 08:15:48;;;;;;;13.90;12.60;;;10.80;25.80;;;;;;20659;6872;118435;-88
2022/03/11 08:18:14;;;;;;;14.40;12.90;;;10.90;26.10;;;;;;20652;6872;117857;-87
2022/03/11 08:20:39;;;;;;;12.70;11.43;;;10.80;26.20;;;;;;20640;6872;117915;-90
2022/03/11 08:23:05;;;;;;;13.30;12.10;;;10.70;26.30;;;;;;20598;6872;117995;-87
2022/03/11 08:25:31;;;;;;;14.45;13.15;;;10.70;26.30;;;;;;20435;6872;312736;-86
2022/03/11 08:27:57;;;;;;;14.32;12.90;;;11.40;25.30;;;;;;20438;6872;343474;-86
2022/03/11 08:30:23;;;;;;;14.68;13.48;;;11.40;25.20;;;;;;20425;6872;303837;-87
2022/03/11 08:32:48;;;;;;;13.50;12.27;;;11.80;24.90;;;;;;20645;6872;117236;-85
2022/03/11 08:35:13;;;;;;;13.27;12.00;;;11.90;25.00;;;;;;20624;6872;119354;-86
2022/03/11 08:37:39;;;;;;;12.97;11.20;;;11.90;25.30;;;;;;20627;6872;118669;-89
2022/03/11 08:40:06;;;;;;;13.67;12.57;;;11.80;25.50;;;;;;20429;6872;284831;-89
2022/03/11 08:42:32;;;;;;;12.60;11.50;;;12.00;24.90;;;;;;20417;6872;309844;-87
2022/03/11 08:44:59;;;;;;;12.17;11.03;;;12.50;24.30;;;;;;20619;6868;118005;-87
2022/03/11 08:47:23;;;;;;;11.57;10.57;;;12.60;24.50;;;;;;20645;6868;118046;-88
2022/03/11 08:49:48;;;;;;;11.10;10.18;;;12.50;24.80;;;;;;20651;6868;117762;-88
2022/03/11 08:52:14;;;;;;;13.83;10.70;;;12.40;24.90;;;;;;20646;6868;117281;-88
2022/03/11 08:54:41;;;;;;;11.57;10.57;;;12.30;25.50;;;;;;20656;6868;117496;-88
2022/03/11 08:57:07;;;;;;;12.00;10.90;;;12.20;24.90;;;;;;20629;6868;118418;-88
2022/03/11 08:59:33;;;;;;;12.30;11.27;;;12.20;24.90;;;;;;20460;6867;280070;-87
2022/03/11 09:01:59;;;;;;;13.03;11.90;;;12.90;23.50;;;;;;20467;6868;301417;-88
2022/03/11 09:04:25;;;;;;;11.17;10.27;;;12.90;23.60;;;;;;20666;6868;116706;-92
2022/03/11 09:06:50;;;;;;;12.00;10.93;;;13.10;23.90;;;;;;20436;6868;283561;-90
2022/03/11 09:09:16;;;;;;;12.40;11.50;;;13.30;23.50;;;;;;20426;6868;293353;-88
2022/03/11 09:11:41;;;;;;;12.48;11.50;;;13.60;23.50;;;;;;20442;6868;313045;-89
2022/03/11 09:14:07;;;;;;;11.35;10.45;;;13.90;23.00;;;;;;20656;6868;117621;-87
2022/03/11 09:16:33;;;;;;;11.53;10.63;;;13.90;23.20;;;;;;20647;6868;123410;-88
2022/03/11 09:18:59;;;;;;;11.73;10.63;;;13.70;23.50;;;;;;20634;6868;121663;-90
2022/03/11 09:21:23;;;;;;;12.07;11.10;;;13.50;23.70;;;;;;20442;6868;295666;-89
2022/03/11 09:23:49;;;;;;;11.00;9.93;;;13.50;23.80;;;;;;20653;6868;117687;-87
2022/03/11 09:26:14;;;;;;;12.50;10.60;;;13.50;23.60;;;;;;20633;6868;117617;-89
2022/03/11 09:28:41;;;;;;;12.07;10.80;;;13.30;23.70;;;;;;20623;6868;117697;-87
2022/03/11 09:31:08;;;;;;;13.10;12.00;;;13.20;24.00;;;;;;20403;6868;280521;-87
2022/03/11 09:33:32;;;;;;;12.30;11.30;;;13.30;23.30;;;;;;20626;6868;117946;-90
2022/03/11 09:35:58;;;;;;;11.90;10.77;;;13.30;23.50;;;;;;20581;6868;121662;-89
2022/03/11 09:38:24;;;;;;;11.63;10.60;;;13.10;23.60;;;;;;20618;6868;118772;-88
2022/03/11 09:40:49;;;;;;;11.07;10.07;;;13.00;23.80;;;;;;20612;6868;115504;-88
2022/03/11 09:43:15;;;;;;;11.23;10.20;;;12.90;24.00;;;;;;20610;6868;117786;-87
2022/03/11 09:45:40;;;;;;;12.75;10.77;;;12.80;24.00;;;;;;20409;6868;347475;-89
2022/03/11 09:48:06;;;;;;;12.30;11.30;;;13.10;23.80;;;;;;20417;6868;279426;-88
2022/03/11 09:50:36;;;;;;;12.70;11.50;;;13.50;24.10;;;;;;20413;6868;309230;-87
2022/03/11 09:53:02;;;;;;;11.33;10.43;;;13.80;23.20;;;;;;20601;6868;117937;-87
2022/03/11 09:55:27;;;;;;;12.45;11.38;;;13.80;23.20;;;;;;20400;6868;310093;-87
2022/03/11 09:57:55;;;;;;;11.27;10.27;;;13.90;23.00;;;;;;20611;6868;118229;-87
2022/03/11 10:00:20;;;;;;;12.60;11.50;;;13.80;23.30;;;;;;20392;6868;285495;-87
2022/03/11 10:02:46;;;;;;;11.50;10.53;;;14.10;23.40;;;;;;20607;6868;116890;-86
2022/03/11 10:05:12;;;;;;;14.00;11.63;;;14.10;23.40;;;;;;20414;6868;280153;-87
2022/03/11 10:07:37;;;;;;;12.80;11.73;;;14.20;23.00;;;;;;20433;6868;279675;-86
2022/03/11 10:10:14;;;;;;;10.67;9.87;;;14.50;23.20;;;;;;20665;6867;116573;-89
2022/03/11 10:12:38;;;;;;;12.70;11.60;;;14.60;23.20;;;;;;20413;6868;279682;-88
2022/03/11 10:15:04;;;;;;;12.18;11.18;;;14.60;22.40;;;;;;20407;6868;310167;-88
2022/03/11 10:17:38;;;;;;;11.43;10.53;;;14.80;22.20;;;;;;20654;6868;117788;-88
2022/03/11 10:20:10;;;;;;;10.87;9.90;;;14.80;22.50;;;;;;20632;6868;117526;-86
2022/03/11 10:22:36;;;;;;;11.83;10.93;;;14.60;22.70;;;;;;20420;6868;310471;-87
2022/03/11 10:25:09;;;;;;;12.60;11.47;;;14.60;22.30;;;;;;20415;6868;314710;-84
2022/03/11 10:27:54;;;;;;;12.70;10.20;;;14.80;22.40;;;;;;20632;6868;118214;-85
2022/03/11 10:30:20;;;;;;;10.50;9.63;;;14.80;22.60;;;;;;20628;6868;118097;-90
2022/03/11 10:32:48;;;;;;;11.12;10.25;;;14.60;22.90;;;;;;20518;6868;307877;-91
2022/03/11 10:35:18;;;;;;;10.50;9.60;;;14.80;23.00;;;;;;20668;6868;122205;-90
2022/03/11 10:37:42;;;;;;;10.77;9.87;;;14.90;23.00;;;;;;20663;6868;117664;-93
2022/03/11 10:40:12;;;;;;;10.70;9.40;;;14.80;23.00;;;;;;20601;6868;117583;-88
2022/03/11 10:42:37;;;;;;;10.23;9.23;;;14.70;23.10;;;;;;20633;6868;117690;-87
2022/03/11 10:45:04;;;;;;;10.95;9.82;;;14.60;23.30;;;;;;20425;6868;309667;-87
2022/03/11 10:47:30;;;;;;;10.73;9.93;;;14.80;23.00;;;;;;20432;6868;279753;-87
2022/03/11 10:50:05;;;;;;;11.57;10.47;;;15.20;23.00;;;;;;20429;6868;309428;-87
2022/03/11 10:52:44;;;;;;;10.37;9.37;;;15.60;22.30;;;;;;20649;6868;122360;-87
2022/03/11 10:55:29;;;;;;;11.10;10.20;;;15.60;22.30;;;;;;20416;6868;314883;-88
2022/03/11 10:57:59;;;;;;;11.37;10.47;;;15.70;22.40;;;;;;20440;6868;283050;-88
2022/03/11 11:00:28;;;;;;;11.68;10.57;;;16.00;22.80;;;;;;20432;6868;333872;-88
2022/03/11 11:02:57;;;;;;;11.12;10.20;;;16.30;22.20;;;;;;20442;6868;310095;-94
2022/03/11 11:05:22;;;;;;;10.37;9.37;;;16.50;22.00;;;;;;20652;6868;117979;-87
2022/03/11 11:07:48;;;;;;;10.37;9.37;;;16.40;22.00;;;;;;20671;6868;69607;-85
2022/03/11 11:10:13;;;;;;;11.00;10.05;;;16.10;22.20;;;;;;20445;6868;319619;-88
2022/03/11 11:12:39;;;;;;;9.70;8.90;;;16.10;22.20;;;;;;20643;6868;120050;-87
2022/03/11 11:15:06;;;;;;;10.23;9.23;;;16.00;22.40;;;;;;20627;6868;117426;-87
2022/03/11 11:17:39;;;;;;;11.30;10.15;;;15.90;22.50;;;;;;20435;6868;309778;-87
2022/03/11 11:20:05;;;;;;;10.13;9.23;;;16.00;22.80;;;;;;20651;6868;117686;-90
2022/03/11 11:22:31;;;;;;;10.30;9.23;;;16.00;22.70;;;;;;20461;6867;122361;-85
2022/03/11 11:24:56;;;;;;;10.40;9.27;;;16.00;22.80;;;;;;20624;6868;128095;-86
2022/03/11 11:27:22;;;;;;;10.77;9.13;;;15.90;22.80;;;;;;20615;6868;118133;-87
2022/03/11 11:29:49;;;;;;;10.50;9.60;;;15.80;22.80;;;;;;20438;6868;280110;-85
2022/03/11 11:32:14;;;;;;;10.75;9.90;;;16.00;22.50;;;;;;20421;6868;338046;-90
2022/03/11 11:34:41;;;;;;;10.17;9.27;;;16.30;22.70;;;;;;20639;6868;117509;-89
2022/03/11 11:37:07;;;;;;;10.00;9.10;;;16.30;22.40;;;;;;20623;6868;121608;-89
2022/03/11 11:39:39;;;;;;;9.73;9.00;;;16.00;22.70;;;;;;20646;6868;118037;-89
2022/03/11 11:42:11;;;;;;;9.97;9.07;;;16.00;22.60;;;;;;20426;6868;279694;-89
2022/03/11 11:44:37;;;;;;;10.73;9.83;;;16.40;22.00;;;;;;20421;6868;310163;-92
2022/03/11 11:47:06;;;;;;;9.53;8.73;;;16.40;22.00;;;;;;20618;6868;121403;-87
2022/03/11 11:49:39;;;;;;;9.80;9.00;;;16.40;22.10;;;;;;20644;6868;118752;-83
2022/03/11 11:52:11;;;;;;;10.47;9.57;;;16.20;22.10;;;;;;20415;6868;309285;-88
2022/03/11 11:54:33;;;;;;;9.82;8.90;;;16.20;22.10;;;;;;20632;6868;117932;-84
2022/03/11 11:57:01;;;;;;;10.03;9.13;;;16.00;22.40;;;;;;20622;6868;117786;-87
2022/03/11 11:59:25;;;;;;;10.90;9.80;;;16.00;22.40;;;;;;20434;6868;279141;-89
2022/03/11 12:01:57;;;;;;;10.80;9.80;;;16.10;22.30;;;;;;20451;6868;279963;-87
2022/03/11 12:04:33;;;;;;;11.53;9.63;;;16.40;21.70;;;;;;20662;6868;117728;-89
2022/03/11 12:07:03;;;;;;;10.37;9.23;;;16.30;22.00;;;;;;20611;6868;117655;-90
2022/03/11 12:09:57;;;;;;;10.93;10.03;;;16.10;22.20;;;;;;20443;6868;280191;-91
2022/03/11 12:12:19;;;;;;;10.38;9.55;;;16.20;22.80;;;;;;20472;6868;279567;-90
2022/03/11 12:15:01;;;;;;;10.63;9.80;;;16.50;22.60;;;;;;20487;6868;311507;-88
2022/03/11 12:17:48;;;;;;;11.30;10.30;;;16.70;22.40;;;;;;20463;6868;309690;-90
2022/03/11 12:20:32;;;;;;;10.33;9.00;;;16.80;21.90;;;;;;20663;6868;117789;-92
2022/03/11 12:23:15;;;;;;;9.93;9.03;;;16.60;21.90;;;;;;20629;6868;127438;-87
2022/03/11 12:25:49;;;;;;;10.40;9.40;;;16.30;22.20;;;;;;20675;6868;123636;-90
2022/03/11 12:28:16;;;;;;;11.40;10.40;;;16.10;23.00;;;;;;20462;6868;298354;-90
2022/03/11 12:30:49;;;;;;;10.57;9.55;;;16.20;22.40;;;;;;20679;6868;117481;-89
2022/03/11 12:33:33;;;;;;;11.47;10.20;;;16.20;22.70;;;;;;20451;6866;307726;-88
2022/03/11 12:35:58;;;;;;;11.70;9.97;;;16.30;22.20;;;;;;20663;6868;120672;-90
2022/03/11 12:38:25;;;;;;;9.88;8.65;;;16.30;22.20;;;;;;20652;6868;117639;-89
2022/03/11 12:40:51;;;;;;;9.90;9.00;;;16.10;22.30;;;;;;20658;6868;117741;-91
2022/03/11 12:43:17;;;;;;;20.48;18.35;;;16.00;22.50;;;;;;20436;6868;280451;-88
2022/03/11 12:45:43;;;;;;;11.97;10.60;;;16.40;22.70;;;;;;20427;6868;307739;-91
2022/03/11 12:48:09;;;;;;;10.07;9.27;;;16.40;22.70;;;;;;20645;6868;117635;-89
2022/03/11 12:50:35;;;;;;;10.17;9.17;;;16.40;22.50;;;;;;20649;6868;117932;-90